Time;durP1;ratioP1;P1;durP2;ratioP2;P2;SDS_P1;SDS_P2;PMS_P1;PMS_P2;Temp;Humidity;BMP_temperature;BMP_pressure;BME280_temperature;BME280_humidity;BME280_pressure;Samples;Min_cycle;Max_cycle;Signal;HPM_P1;HPM_P2
2022/10/03 00:01:21;;;;;;;15.73;2.60;;;10.20;99.90;;;;;;5073776;27;20057;-51
2022/10/03 00:04:34;;;;;;;10.75;2.38;;;10.20;99.90;;;;;;5146517;27;20046;-51
2022/10/03 00:07:26;;;;;;;11.55;2.08;;;10.20;99.90;;;;;;5055882;27;20066;-52
2022/10/03 00:10:05;;;;;;;14.48;2.38;;;10.30;99.90;;;;;;5134062;27;20078;-51
2022/10/03 00:12:57;;;;;;;12.50;1.67;;;10.30;99.90;;;;;;5135441;27;20046;-52
2022/10/03 00:15:33;;;;;;;8.02;1.83;;;10.20;99.90;;;;;;5138274;27;20043;-51
2022/10/03 00:18:12;;;;;;;12.55;1.85;;;10.20;99.90;;;;;;5147450;27;20034;-50
2022/10/03 00:21:08;;;;;;;6.10;1.10;;;10.20;99.90;;;;;;5114375;28;20086;-52
2022/10/03 00:23:43;;;;;;;12.25;2.30;;;10.20;99.90;;;;;;5130292;27;20035;-51
2022/10/03 00:26:26;;;;;;;12.10;2.28;;;10.20;99.90;;;;;;5137186;27;20039;-50
2022/10/03 00:29:11;;;;;;;6.63;1.85;;;10.20;99.90;;;;;;5124657;27;20042;-50
2022/10/03 00:31:53;;;;;;;10.32;1.67;;;10.20;99.90;;;;;;5141019;27;20039;-50
2022/10/03 00:34:41;;;;;;;11.40;2.10;;;10.20;99.90;;;;;;5144075;27;20035;-51
2022/10/03 00:37:32;;;;;;;8.60;1.75;;;10.20;99.90;;;;;;5136118;27;20043;-50
2022/10/03 00:40:16;;;;;;;11.32;1.88;;;10.20;99.90;;;;;;5146857;27;20495;-52
2022/10/03 00:43:06;;;;;;;13.13;2.00;;;10.30;99.90;;;;;;5138116;27;20035;-51
2022/10/03 00:46:05;;;;;;;8.85;1.35;;;10.20;99.90;;;;;;5152848;27;20045;-53
2022/10/03 00:48:39;;;;;;;7.45;1.05;;;10.20;99.90;;;;;;5151365;27;20066;-51
2022/10/03 00:51:50;;;;;;;7.38;1.38;;;10.20;99.90;;;;;;5113265;28;20040;-50
2022/10/03 00:54:53;;;;;;;11.25;1.63;;;10.20;99.90;;;;;;5123003;27;20034;-51
2022/10/03 00:57:40;;;;;;;12.18;1.30;;;10.20;99.90;;;;;;5154618;27;20106;-50
2022/10/03 01:00:25;;;;;;;9.30;1.95;;;10.20;99.90;;;;;;5142113;27;20104;-51
2022/10/03 01:02:51;;;;;;;8.65;1.25;;;10.20;99.90;;;;;;5132600;27;20134;-51
2022/10/03 01:05:53;;;;;;;11.70;2.20;;;10.10;99.90;;;;;;5134610;27;20397;-50
2022/10/03 01:09:04;;;;;;;10.35;1.75;;;10.10;99.90;;;;;;5120230;27;20058;-51
2022/10/03 01:12:14;;;;;;;14.07;1.85;;;10.10;99.90;;;;;;5112676;27;20184;-51
2022/10/03 01:15:16;;;;;;;11.23;1.80;;;10.10;99.90;;;;;;5103928;27;20054;-50
2022/10/03 01:18:17;;;;;;;15.25;2.45;;;10.10;99.90;;;;;;5127127;27;20050;-51
2022/10/03 01:21:35;;;;;;;9.20;1.83;;;10.10;99.90;;;;;;5110679;27;20403;-51
2022/10/03 01:24:15;;;;;;;9.85;2.05;;;10.10;99.90;;;;;;5028783;28;20057;-51
2022/10/03 01:27:03;;;;;;;6.13;1.05;;;10.10;99.90;;;;;;5049039;28;20068;-51
2022/10/03 01:32:38;;;;;;;13.13;1.42;;;10.10;99.90;;;;;;5049247;28;19927;-50
2022/10/03 01:35:26;;;;;;;13.45;2.28;;;10.10;99.90;;;;;;5046291;28;20036;-52
2022/10/03 01:38:08;;;;;;;8.10;1.85;;;10.10;99.90;;;;;;5049134;28;20061;-53
2022/10/03 01:40:45;;;;;;;12.98;1.85;;;10.10;99.90;;;;;;5029344;28;20045;-51
2022/10/03 01:43:20;;;;;;;15.75;2.40;;;10.00;99.90;;;;;;5028466;28;20196;-51
2022/10/03 01:46:07;;;;;;;12.45;2.15;;;10.00;99.90;;;;;;5029406;28;20053;-52
2022/10/03 01:48:53;;;;;;;9.18;1.05;;;10.00;99.90;;;;;;5028998;28;20556;-50
2022/10/03 01:51:47;;;;;;;16.35;1.60;;;9.90;99.90;;;;;;5028616;28;20463;-51
2022/10/03 01:54:22;;;;;;;12.93;2.10;;;10.00;99.90;;;;;;5027751;28;20530;-52
2022/10/03 01:57:08;;;;;;;11.15;1.70;;;9.90;99.90;;;;;;5030785;28;20564;-51
2022/10/03 01:59:51;;;;;;;11.95;1.77;;;9.90;99.90;;;;;;5080861;27;20130;-53
2022/10/03 02:02:41;;;;;;;9.52;0.88;;;9.90;99.90;;;;;;5153031;27;20039;-51
2022/10/03 02:05:27;;;;;;;9.52;2.10;;;9.90;99.90;;;;;;5120084;27;20047;-51
2022/10/03 02:08:04;;;;;;;8.10;1.42;;;9.90;99.90;;;;;;5133163;27;20127;-53
2022/10/03 02:10:59;;;;;;;13.60;1.52;;;9.90;99.90;;;;;;5138544;27;20038;-50
2022/10/03 02:13:39;;;;;;;10.38;1.55;;;9.90;99.90;;;;;;5152366;27;20066;-51
2022/10/03 02:16:25;;;;;;;15.65;1.48;;;9.90;99.90;;;;;;5139069;27;20412;-51
2022/10/03 02:18:54;;;;;;;8.25;1.70;;;9.90;99.90;;;;;;5133077;27;20053;-51
2022/10/03 02:21:28;;;;;;;10.57;1.67;;;9.90;99.90;;;;;;5144938;27;20529;-53
2022/10/03 02:24:19;;;;;;;13.32;1.60;;;9.90;99.90;;;;;;5152448;27;20407;-50
2022/10/03 02:27:05;;;;;;;11.52;1.75;;;9.80;99.90;;;;;;5124270;27;20459;-52
2022/10/03 02:29:57;;;;;;;13.35;2.17;;;9.80;99.90;;;;;;5137702;27;20134;-51
2022/10/03 02:32:57;;;;;;;8.23;1.77;;;9.80;99.90;;;;;;5140048;27;20485;-51
2022/10/03 02:36:00;;;;;;;11.10;1.63;;;9.80;99.90;;;;;;5135652;27;20027;-50
2022/10/03 02:38:48;;;;;;;9.95;1.30;;;9.80;99.90;;;;;;5111309;28;20039;-52
2022/10/03 02:41:38;;;;;;;12.88;1.65;;;9.80;99.90;;;;;;5129736;27;20114;-50
2022/10/03 02:44:34;;;;;;;16.80;1.98;;;9.80;99.90;;;;;;5130544;27;20116;-52
2022/10/03 02:47:23;;;;;;;14.95;1.60;;;9.70;99.90;;;;;;5128365;27;20052;-50
2022/10/03 02:50:08;;;;;;;9.93;1.60;;;9.80;99.90;;;;;;5111251;28;20035;-51
2022/10/03 02:53:12;;;;;;;8.55;1.15;;;9.80;99.90;;;;;;5149328;27;20035;-51
2022/10/03 02:56:16;;;;;;;28.05;2.35;;;9.80;99.90;;;;;;5128967;27;20091;-51
2022/10/03 02:59:31;;;;;;;9.63;1.70;;;9.80;99.90;;;;;;5142250;27;20123;-52
2022/10/03 03:02:44;;;;;;;11.48;1.63;;;9.80;99.90;;;;;;5091652;27;20495;-51
2022/10/03 03:05:39;;;;;;;14.40;2.00;;;9.80;99.90;;;;;;5151399;27;20042;-52
2022/10/03 03:08:32;;;;;;;8.82;1.48;;;9.70;99.90;;;;;;5137650;27;20089;-50
2022/10/03 03:11:21;;;;;;;8.77;1.40;;;9.70;99.90;;;;;;5117480;27;20552;-51
2022/10/03 03:14:08;;;;;;;9.20;1.67;;;9.70;99.90;;;;;;5110397;28;20044;-51
2022/10/03 03:16:39;;;;;;;13.52;1.60;;;9.70;99.90;;;;;;5103708;27;20054;-52
2022/10/03 03:19:37;;;;;;;9.50;1.85;;;9.70;99.90;;;;;;5130101;28;20042;-54
2022/10/03 03:22:18;;;;;;;;;;;9.80;99.90;;;;;;5130755;27;20118;-50
2022/10/03 03:25:04;;;;;;;6.93;1.27;;;9.70;99.90;;;;;;5096015;28;20000;-50
2022/10/03 03:27:55;;;;;;;5.53;0.77;;;9.70;99.90;;;;;;5139151;27;20332;-51
2022/10/03 03:30:34;;;;;;;7.90;1.38;;;9.60;99.90;;;;;;5149855;27;20041;-51
2022/10/03 03:33:30;;;;;;;12.35;2.47;;;9.60;99.90;;;;;;5146020;27;20053;-52
2022/10/03 03:36:15;;;;;;;5.30;1.20;;;9.60;99.90;;;;;;5110532;27;20036;-51
2022/10/03 03:39:09;;;;;;;5.78;1.67;;;9.60;99.90;;;;;;5118609;28;20043;-51
2022/10/03 03:41:55;;;;;;;9.02;1.90;;;9.60;99.90;;;;;;5134943;27;20038;-52
2022/10/03 03:44:57;;;;;;;8.85;1.50;;;9.60;99.90;;;;;;5151152;27;20530;-51
2022/10/03 03:47:27;;;;;;;8.27;1.63;;;9.60;99.90;;;;;;5037137;28;20038;-50
2022/10/03 03:50:11;;;;;;;5.30;0.95;;;9.60;99.90;;;;;;5110384;28;20043;-52
2022/10/03 03:52:49;;;;;;;10.68;1.85;;;9.50;99.90;;;;;;5133319;27;20070;-50
2022/10/03 03:55:47;;;;;;;11.85;2.45;;;9.50;99.90;;;;;;5151305;27;20503;-52
2022/10/03 03:58:45;;;;;;;10.10;1.65;;;9.50;99.90;;;;;;5134172;27;20092;-51
2022/10/03 04:01:35;;;;;;;10.38;1.20;;;9.50;99.90;;;;;;5130671;28;20047;-51
2022/10/03 04:04:32;;;;;;;14.38;1.88;;;9.50;99.90;;;;;;5130204;28;20050;-50
2022/10/03 04:07:07;;;;;;;9.57;1.30;;;9.50;99.90;;;;;;5127850;27;20051;-53
2022/10/03 04:09:45;;;;;;;8.32;2.10;;;9.50;99.90;;;;;;5110702;28;20114;-51
2022/10/03 04:12:39;;;;;;;7.75;1.80;;;9.60;99.90;;;;;;5104853;27;20043;-53
2022/10/03 04:15:33;;;;;;;8.10;1.70;;;9.50;99.90;;;;;;5137385;27;20126;-51
2022/10/03 04:21:22;;;;;;;9.05;1.73;;;9.50;99.90;;;;;;5134220;27;20040;-51
2022/10/03 04:23:56;;;;;;;9.23;1.58;;;9.50;99.90;;;;;;5151101;27;20046;-50
2022/10/03 04:26:50;;;;;;;9.38;1.75;;;9.50;99.90;;;;;;5153346;27;20197;-51
2022/10/03 04:29:28;;;;;;;4.57;1.25;;;9.50;99.90;;;;;;5132380;27;20531;-51
2022/10/03 04:32:07;;;;;;;3.25;1.05;;;9.50;99.90;;;;;;5134230;27;20084;-52
2022/10/03 04:34:45;;;;;;;6.38;1.88;;;9.50;99.90;;;;;;5113199;28;20127;-49
2022/10/03 04:37:27;;;;;;;8.40;1.42;;;9.50;99.90;;;;;;5126119;27;20053;-50
2022/10/03 04:40:25;;;;;;;5.30;1.25;;;9.50;99.90;;;;;;5153231;27;20045;-51
2022/10/03 04:43:14;;;;;;;4.90;1.05;;;9.40;99.90;;;;;;5111990;27;20086;-51
2022/10/03 04:46:15;;;;;;;7.65;1.35;;;9.40;99.90;;;;;;5134222;27;20039;-52
2022/10/03 04:49:05;;;;;;;7.53;1.85;;;9.40;99.90;;;;;;5133969;27;20419;-51
2022/10/03 04:51:44;;;;;;;4.68;1.10;;;9.30;99.90;;;;;;5133523;27;20068;-50
2022/10/03 04:54:15;;;;;;;8.30;1.40;;;9.30;99.90;;;;;;5149334;27;20035;-52
2022/10/03 04:57:02;;;;;;;8.32;1.83;;;9.30;99.90;;;;;;5114531;27;20496;-51
2022/10/03 04:59:33;;;;;;;8.70;1.17;;;9.30;99.90;;;;;;5135835;27;20487;-53
2022/10/03 05:02:13;;;;;;;25.67;2.22;;;9.30;99.90;;;;;;5132382;27;20031;-50
2022/10/03 05:04:51;;;;;;;20.10;1.60;;;9.30;99.90;;;;;;5133922;27;20519;-51
2022/10/03 05:07:40;;;;;;;42.50;3.15;;;9.30;99.90;;;;;;5093953;28;20044;-52
2022/10/03 05:10:38;;;;;;;20.20;1.80;;;9.30;99.90;;;;;;5128866;27;20050;-50
2022/10/03 05:13:41;;;;;;;5.50;1.95;;;9.20;99.90;;;;;;5133126;27;20031;-51
2022/10/03 05:16:14;;;;;;;4.70;0.82;;;9.20;99.90;;;;;;5133905;27;20453;-51
2022/10/03 05:18:44;;;;;;;10.30;1.10;;;9.20;99.90;;;;;;5133048;27;20039;-50
2022/10/03 05:21:19;;;;;;;7.75;1.45;;;9.20;99.90;;;;;;5129942;27;20038;-51
2022/10/03 05:24:14;;;;;;;26.40;1.50;;;9.20;99.90;;;;;;5132281;27;20110;-52
2022/10/03 05:26:39;;;;;;;8.55;1.20;;;9.20;99.90;;;;;;5128490;27;20088;-52
2022/10/03 05:29:30;;;;;;;4.97;1.10;;;9.30;99.90;;;;;;5114015;27;20070;-51
2022/10/03 05:32:26;;;;;;;4.38;1.27;;;9.30;99.90;;;;;;5107013;28;20039;-51
2022/10/03 05:35:36;;;;;;;2.00;0.80;;;9.40;99.90;;;;;;5112196;28;20434;-50
2022/10/03 05:38:19;;;;;;;20.10;1.67;;;9.40;99.90;;;;;;5136962;27;20504;-53
2022/10/03 05:41:06;;;;;;;31.15;2.35;;;9.40;99.90;;;;;;5140135;27;20046;-50
2022/10/03 05:43:57;;;;;;;13.98;1.60;;;9.40;99.90;;;;;;5145114;27;20045;-51
2022/10/03 05:46:34;;;;;;;10.43;1.48;;;9.40;99.90;;;;;;5136757;27;20043;-53
2022/10/03 05:49:00;;;;;;;;;;;9.30;99.90;;;;;;5136246;27;20031;-51
2022/10/03 05:51:38;;;;;;;3.08;1.27;;;9.40;99.90;;;;;;5140248;27;20002;-53
2022/10/03 05:54:06;;;;;;;3.60;1.67;;;9.40;99.90;;;;;;5131968;27;20508;-52
2022/10/03 05:56:59;;;;;;;5.93;1.50;;;9.40;99.90;;;;;;5132368;27;20043;-51
2022/10/03 05:59:43;;;;;;;6.65;1.38;;;9.40;99.90;;;;;;5144870;27;20051;-52
2022/10/03 06:02:36;;;;;;;4.70;1.10;;;9.50;99.90;;;;;;5112145;28;20126;-54
2022/10/03 06:05:43;;;;;;;3.53;1.95;;;9.60;99.90;;;;;;5111334;28;20431;-52
2022/10/03 06:08:35;;;;;;;3.47;1.10;;;9.80;99.90;;;;;;5131284;27;20031;-50
2022/10/03 06:11:42;;;;;;;3.55;1.40;;;10.10;99.90;;;;;;5139868;27;20170;-53
2022/10/03 06:14:32;;;;;;;6.18;4.15;;;10.40;99.90;;;;;;5096070;27;20044;-51
2022/10/03 06:17:28;;;;;;;5.20;3.58;;;10.60;99.90;;;;;;5138281;27;20039;-51
2022/10/03 06:20:22;;;;;;;5.05;1.90;;;10.90;99.90;;;;;;5115726;27;20051;-50
2022/10/03 06:23:03;;;;;;;5.25;2.40;;;11.20;99.90;;;;;;5142516;27;20046;-52
2022/10/03 06:25:47;;;;;;;9.15;2.00;;;11.40;99.90;;;;;;5120717;27;20103;-51
2022/10/03 06:28:17;;;;;;;7.50;2.25;;;11.70;99.90;;;;;;5114579;27;20039;-51
2022/10/03 06:31:01;;;;;;;2.33;0.80;;;12.00;99.90;;;;;;5144118;27;20058;-53
2022/10/03 06:33:32;;;;;;;7.85;1.27;;;12.40;99.90;;;;;;5138231;27;20045;-52
2022/10/03 06:36:35;;;;;;;7.22;6.28;;;12.80;99.90;;;;;;5150373;27;20118;-54
2022/10/03 06:39:25;;;;;;;8.80;1.50;;;13.30;99.90;;;;;;5137095;27;20034;-51
2022/10/03 06:42:34;;;;;;;9.25;1.00;;;13.70;99.90;;;;;;5113456;27;20039;-54
2022/10/03 06:45:15;;;;;;;3.95;0.85;;;14.10;99.90;;;;;;5129952;27;20034;-51
2022/10/03 06:47:58;;;;;;;4.95;1.13;;;14.50;99.90;;;;;;5111993;27;20074;-52
2022/10/03 06:50:52;;;;;;;2.67;1.00;;;14.70;99.90;;;;;;5104291;27;20464;-54
2022/10/03 06:53:28;;;;;;;10.43;0.95;;;14.70;99.90;;;;;;5129734;27;20088;-55
2022/10/03 06:56:18;;;;;;;5.93;1.00;;;14.50;99.90;;;;;;5132787;27;20074;-51
2022/10/03 06:58:55;;;;;;;4.38;1.08;;;14.20;99.90;;;;;;5093967;27;20090;-53
2022/10/03 07:01:26;;;;;;;4.68;1.00;;;14.10;99.90;;;;;;5149410;27;20054;-55
2022/10/03 07:04:29;;;;;;;5.18;1.02;;;13.80;99.90;;;;;;5132557;27;20031;-51
2022/10/03 07:07:15;;;;;;;5.82;1.02;;;13.60;99.90;;;;;;5110846;28;20446;-53
2022/10/03 07:10:25;;;;;;;4.15;0.75;;;13.40;99.90;;;;;;5145215;27;20503;-53
2022/10/03 07:13:19;;;;;;;13.48;1.20;;;13.20;99.90;;;;;;5104727;27;20047;-51
2022/10/03 07:16:04;;;;;;;8.25;1.60;;;13.00;99.90;;;;;;5109893;27;20039;-53
2022/10/03 07:19:11;;;;;;;6.53;1.00;;;12.90;99.90;;;;;;5110241;28;20048;-53
2022/10/03 07:21:55;;;;;;;7.53;1.13;;;12.80;99.90;;;;;;5075187;28;20093;-54
2022/10/03 07:24:58;;;;;;;13.93;1.55;;;12.80;99.90;;;;;;5107757;28;20125;-51
2022/10/03 07:27:39;;;;;;;7.22;1.30;;;12.80;99.90;;;;;;5110760;28;20125;-55
2022/10/03 07:30:15;;;;;;;6.95;1.63;;;12.80;99.90;;;;;;5091997;28;20040;-56
2022/10/03 07:33:21;;;;;;;4.70;1.35;;;12.80;99.90;;;;;;5122235;28;20053;-54
2022/10/03 07:39:37;;;;;;;6.78;0.85;;;12.80;99.90;;;;;;5136894;27;20058;-55
2022/10/03 07:42:25;;;;;;;5.43;1.02;;;12.80;99.90;;;;;;5141688;27;20379;-54
2022/10/03 07:44:57;;;;;;;7.68;1.30;;;12.80;99.90;;;;;;5136362;27;20046;-56
2022/10/03 07:47:56;;;;;;;10.35;1.30;;;12.90;99.90;;;;;;5115885;27;20043;-57
2022/10/03 07:50:45;;;;;;;6.10;1.30;;;13.10;99.90;;;;;;5070499;27;20048;-54
2022/10/03 07:53:39;;;;;;;10.02;1.02;;;13.20;99.90;;;;;;5118223;27;20035;-57
2022/10/03 07:56:30;;;;;;;8.25;1.77;;;13.40;99.90;;;;;;5116121;27;20122;-56
2022/10/03 07:59:18;;;;;;;6.32;1.48;;;13.50;99.90;;;;;;5114684;27;20047;-57
2022/10/03 08:01:49;;;;;;;6.13;0.82;;;13.60;99.90;;;;;;5115591;27;20047;-56
2022/10/03 08:04:58;;;;;;;12.43;1.67;;;13.60;99.90;;;;;;5093894;27;20122;-57
2022/10/03 08:07:54;;;;;;;7.85;1.45;;;13.70;99.90;;;;;;5114746;27;20047;-57
2022/10/03 08:10:41;;;;;;;7.18;1.60;;;13.80;99.90;;;;;;5115155;27;20031;-57
2022/10/03 08:13:42;;;;;;;4.40;0.63;;;14.00;99.90;;;;;;5112758;27;20050;-57
2022/10/03 08:16:44;;;;;;;8.50;0.90;;;14.00;99.90;;;;;;5110986;27;20043;-58
2022/10/03 08:19:33;;;;;;;8.82;1.10;;;14.00;99.90;;;;;;5117370;27;20031;-56
2022/10/03 08:22:23;;;;;;;5.43;1.15;;;14.10;99.90;;;;;;5114838;27;20503;-56
2022/10/03 08:25:00;;;;;;;6.85;0.52;;;14.20;99.90;;;;;;5117791;27;20120;-57
2022/10/03 08:27:55;;;;;;;9.13;1.25;;;14.30;99.90;;;;;;5113269;27;20023;-57
2022/10/03 08:30:35;;;;;;;7.57;0.90;;;14.50;99.90;;;;;;5114428;27;20044;-56
2022/10/03 08:33:44;;;;;;;6.13;1.20;;;14.60;99.90;;;;;;5111324;27;20520;-56
2022/10/03 08:36:28;;;;;;;5.85;0.70;;;14.70;99.90;;;;;;5117124;27;20075;-56
2022/10/03 08:39:12;;;;;;;8.57;0.80;;;14.90;99.90;;;;;;5121281;27;20035;-57
2022/10/03 08:42:05;;;;;;;9.15;1.00;;;14.90;99.90;;;;;;5114993;27;20055;-57
2022/10/03 08:44:58;;;;;;;4.68;0.70;;;15.10;99.90;;;;;;5115628;27;20047;-56
2022/10/03 08:48:01;;;;;;;7.20;0.77;;;15.10;99.90;;;;;;5116398;27;20039;-57
2022/10/03 08:51:04;;;;;;;5.68;1.08;;;15.30;99.90;;;;;;5116832;27;20175;-56
2022/10/03 08:53:48;;;;;;;6.60;0.50;;;15.40;99.90;;;;;;5116988;27;20039;-56
2022/10/03 08:56:36;;;;;;;10.32;1.17;;;15.50;99.90;;;;;;5118318;27;20388;-55
2022/10/03 08:59:15;;;;;;;5.95;0.65;;;15.60;99.90;;;;;;5122637;27;20045;-54
2022/10/03 09:01:59;;;;;;;7.53;1.05;;;15.70;99.90;;;;;;5123548;27;20047;-56
2022/10/03 09:04:48;;;;;;;7.63;1.00;;;15.80;99.90;;;;;;5119312;27;20492;-56
2022/10/03 09:07:56;;;;;;;9.15;0.85;;;15.90;99.90;;;;;;5121382;27;20046;-57
2022/10/03 09:10:35;;;;;;;10.70;0.85;;;16.00;99.90;;;;;;5086380;27;20411;-56
2022/10/03 09:13:30;;;;;;;7.97;1.67;;;16.10;99.90;;;;;;5119245;27;20031;-54
2022/10/03 09:16:20;;;;;;;8.65;0.57;;;16.20;99.90;;;;;;5123733;27;20388;-55
2022/10/03 09:19:19;;;;;;;4.63;0.43;;;16.40;99.90;;;;;;5119984;27;20071;-56
2022/10/03 09:21:51;;;;;;;10.35;1.38;;;16.50;99.90;;;;;;5117939;27;20038;-56
2022/10/03 09:24:54;;;;;;;8.30;0.93;;;16.70;99.90;;;;;;5123197;27;20432;-57
2022/10/03 09:27:38;;;;;;;8.77;0.70;;;16.90;99.90;;;;;;5119535;27;20130;-56
2022/10/03 09:30:42;;;;;;;8.32;0.77;;;17.00;99.90;;;;;;5117930;27;20087;-56
2022/10/03 09:33:56;;;;;;;7.90;2.33;;;17.10;99.90;;;;;;5117380;27;20043;-57
2022/10/03 09:36:40;;;;;;;7.47;0.40;;;17.20;99.90;;;;;;5118980;27;20263;-56
2022/10/03 09:39:52;;;;;;;15.80;1.40;;;17.20;99.90;;;;;;5119856;27;20095;-56
2022/10/03 09:42:36;;;;;;;7.65;1.13;;;17.30;99.90;;;;;;5120475;27;20071;-56
2022/10/03 09:45:13;;;;;;;4.63;0.82;;;17.30;99.90;;;;;;5124567;27;20030;-56
2022/10/03 09:48:10;;;;;;;4.35;0.40;;;17.30;99.90;;;;;;5120050;27;20487;-54
2022/10/03 09:51:02;;;;;;;6.90;0.70;;;17.30;99.90;;;;;;5118029;27;20121;-55
2022/10/03 09:53:46;;;;;;;8.88;0.60;;;17.30;99.90;;;;;;5117371;27;20448;-56
2022/10/03 09:56:24;;;;;;;9.55;1.27;;;17.40;99.90;;;;;;5121368;27;20122;-56
2022/10/03 09:59:17;;;;;;;6.60;0.45;;;17.50;99.90;;;;;;5121658;27;20381;-57
2022/10/03 10:02:27;;;;;;;7.20;0.73;;;17.60;99.90;;;;;;5119784;27;20502;-56
2022/10/03 10:05:18;;;;;;;7.32;0.70;;;17.70;99.90;;;;;;5113962;27;20111;-56
2022/10/03 10:08:15;;;;;;;8.10;1.10;;;17.90;99.90;;;;;;5120587;27;20070;-56
2022/10/03 10:10:51;;;;;;;9.10;1.10;;;18.10;99.90;;;;;;5117731;27;20122;-58
2022/10/03 10:13:49;;;;;;;11.02;1.55;;;18.00;99.90;;;;;;5097472;27;20564;-56
2022/10/03 10:16:33;;;;;;;;;;;18.00;99.90;;;;;;5117412;27;20130;-55
2022/10/03 10:19:12;;;;;;;3.45;0.70;;;17.90;99.90;;;;;;5102067;27;20320;-56
2022/10/03 10:22:17;;;;;;;7.13;1.17;;;18.20;99.90;;;;;;5120384;27;20051;-55
2022/10/03 10:24:45;;;;;;;5.20;0.47;;;18.20;99.90;;;;;;5117386;27;20031;-56
2022/10/03 10:27:54;;;;;;;7.00;1.00;;;18.20;99.90;;;;;;5119653;27;20039;-56
2022/10/03 10:30:38;;;;;;;5.97;1.00;;;18.20;99.90;;;;;;5117333;27;20036;-56
2022/10/03 10:33:41;;;;;;;6.32;0.90;;;18.20;99.90;;;;;;5115079;27;20117;-56
2022/10/03 10:36:25;;;;;;;6.90;0.65;;;18.30;99.90;;;;;;5115937;27;20035;-56
2022/10/03 10:39:39;;;;;;;6.25;0.57;;;18.30;99.90;;;;;;5120008;27;20039;-56
2022/10/03 10:42:55;;;;;;;6.20;0.63;;;18.30;99.90;;;;;;5117009;27;20073;-57
2022/10/03 10:45:59;;;;;;;9.43;0.82;;;18.30;99.90;;;;;;5119594;27;20042;-56
2022/10/03 10:49:10;;;;;;;8.27;0.50;;;18.30;99.90;;;;;;5121358;27;20039;-56
2022/10/03 10:51:38;;;;;;;7.57;0.95;;;18.40;99.90;;;;;;5116250;27;20039;-56
2022/10/03 10:54:07;;;;;;;2.45;0.40;;;18.40;99.90;;;;;;5116470;27;20110;-57
2022/10/03 10:56:59;;;;;;;6.82;0.40;;;18.40;99.90;;;;;;5099666;27;20050;-57
2022/10/03 10:59:55;;;;;;;4.22;0.35;;;18.40;99.90;;;;;;5119832;27;20526;-57
2022/10/03 11:02:39;;;;;;;6.10;0.50;;;18.50;99.90;;;;;;5116237;27;20044;-55
2022/10/03 11:05:43;;;;;;;2.88;0.28;;;18.50;99.90;;;;;;5106422;27;20074;-56
2022/10/03 11:08:21;;;;;;;7.03;0.65;;;18.50;99.90;;;;;;5115566;27;20131;-56
2022/10/03 11:10:59;;;;;;;6.20;0.73;;;18.50;99.90;;;;;;5119159;27;20036;-57
2022/10/03 11:13:59;;;;;;;4.25;0.70;;;18.60;99.90;;;;;;5117125;27;20035;-56
2022/10/03 11:17:02;;;;;;;6.70;0.40;;;18.70;99.90;;;;;;5117293;27;20118;-57
2022/10/03 11:20:08;;;;;;;4.75;0.52;;;18.70;99.90;;;;;;5115697;27;20112;-57
2022/10/03 11:23:08;;;;;;;5.22;0.70;;;18.80;99.80;;;;;;5094375;27;20048;-57
2022/10/03 11:25:54;;;;;;;4.10;0.52;;;18.90;99.40;;;;;;5115274;27;20048;-55
2022/10/03 11:28:50;;;;;;;7.20;0.50;;;19.10;99.50;;;;;;5119228;27;20032;-57
2022/10/03 11:32:08;;;;;;;3.83;0.50;;;19.20;99.30;;;;;;5115814;27;20385;-56
2022/10/03 11:34:40;;;;;;;9.40;0.68;;;19.20;99.50;;;;;;5098373;27;20055;-56
2022/10/03 11:37:29;;;;;;;6.53;0.55;;;19.20;99.70;;;;;;5098376;27;20099;-56
2022/10/03 11:40:13;;;;;;;7.13;0.70;;;19.20;99.10;;;;;;5119205;27;20023;-57
2022/10/03 11:43:17;;;;;;;5.07;0.75;;;19.20;99.10;;;;;;5113286;27;20561;-57
2022/10/03 11:45:50;;;;;;;7.63;0.90;;;19.20;98.80;;;;;;5114949;27;20403;-55
2022/10/03 11:48:25;;;;;;;5.07;0.73;;;19.20;99.40;;;;;;5114679;27;20032;-54
2022/10/03 11:50:55;;;;;;;5.93;0.40;;;19.30;99.80;;;;;;5118770;27;20436;-56
2022/10/03 11:53:32;;;;;;;4.07;0.40;;;19.30;99.20;;;;;;5114638;27;20035;-55
2022/10/03 11:56:11;;;;;;;4.97;0.55;;;19.30;99.20;;;;;;5116416;27;20031;-56
2022/10/03 11:59:08;;;;;;;8.25;0.65;;;19.30;99.00;;;;;;5095458;27;20066;-57
2022/10/03 12:02:05;;;;;;;3.42;0.50;;;19.20;98.70;;;;;;5115487;27;20134;-57
2022/10/03 12:04:43;;;;;;;;;;;19.10;98.10;;;;;;5115413;27;20093;-55
2022/10/03 12:10:43;;;;;;;4.05;0.47;;;18.80;98.50;;;;;;5115193;27;20040;-56
2022/10/03 12:13:25;;;;;;;3.75;0.43;;;18.80;98.80;;;;;;5116805;27;21442;-56
2022/10/03 12:15:53;;;;;;;7.70;0.65;;;18.60;98.70;;;;;;5116438;27;20048;-57
2022/10/03 12:18:26;;;;;;;4.90;0.88;;;18.60;99.00;;;;;;5119631;27;20043;-57
2022/10/03 12:21:11;;;;;;;4.90;0.30;;;18.60;99.20;;;;;;5118369;27;20416;-56
2022/10/03 12:24:02;;;;;;;1.92;0.20;;;18.70;98.80;;;;;;5102721;27;20525;-55
2022/10/03 12:27:05;;;;;;;7.40;1.00;;;18.80;99.00;;;;;;5102386;27;20069;-55
2022/10/03 12:29:35;;;;;;;2.58;0.30;;;18.90;98.90;;;;;;5060170;27;20068;-56
2022/10/03 12:32:25;;;;;;;3.50;0.30;;;19.00;98.60;;;;;;5136775;27;20042;-57
2022/10/03 12:35:25;;;;;;;6.55;1.05;;;19.00;99.00;;;;;;5116801;27;20034;-58
2022/10/03 12:38:34;;;;;;;4.35;0.50;;;19.00;98.50;;;;;;5137142;27;20346;-57
2022/10/03 12:41:08;;;;;;;5.90;0.73;;;18.90;98.30;;;;;;5078729;27;20503;-57
2022/10/03 12:43:49;;;;;;;4.20;0.30;;;18.90;98.60;;;;;;5138729;27;20049;-56
2022/10/03 12:46:22;;;;;;;6.20;0.88;;;18.90;98.40;;;;;;5140472;27;20059;-58
2022/10/03 12:49:02;;;;;;;4.07;0.40;;;19.00;98.30;;;;;;5134003;27;20494;-56
2022/10/03 12:51:53;;;;;;;4.40;0.38;;;19.10;98.60;;;;;;5115992;27;20436;-58
2022/10/03 12:54:36;;;;;;;9.20;0.38;;;19.20;98.20;;;;;;5134586;27;20699;-58
2022/10/03 12:57:18;;;;;;;7.25;0.77;;;19.20;98.40;;;;;;5140101;27;20117;-58
2022/10/03 12:59:59;;;;;;;4.72;0.50;;;19.10;98.30;;;;;;5138384;27;20047;-58
2022/10/03 13:02:40;;;;;;;6.90;1.05;;;19.00;98.40;;;;;;5115409;27;20061;-57
2022/10/03 13:05:27;;;;;;;5.03;0.40;;;18.90;98.60;;;;;;5134533;27;20081;-59
2022/10/03 13:08:14;;;;;;;7.78;1.00;;;18.90;98.40;;;;;;5134464;27;20492;-57
2022/10/03 13:10:51;;;;;;;3.90;0.50;;;19.00;98.60;;;;;;5135133;27;20039;-58
2022/10/03 13:13:30;;;;;;;5.05;0.60;;;19.00;98.20;;;;;;5139872;27;20039;-56
2022/10/03 13:16:21;;;;;;;2.92;0.38;;;18.90;98.00;;;;;;5138400;27;20107;-57
2022/10/03 13:18:49;;;;;;;1.92;0.20;;;18.70;98.00;;;;;;5136105;27;20369;-56
2022/10/03 13:21:21;;;;;;;4.90;0.60;;;18.70;98.30;;;;;;5135656;27;20058;-55
2022/10/03 13:23:57;;;;;;;6.47;0.55;;;18.70;98.50;;;;;;5131308;27;20444;-56
2022/10/03 13:26:38;;;;;;;3.58;0.80;;;18.60;98.40;;;;;;5133776;27;20395;-57
2022/10/03 13:29:28;;;;;;;6.95;0.85;;;18.70;98.50;;;;;;5135557;27;20019;-57
2022/10/03 13:32:16;;;;;;;2.67;0.57;;;18.70;98.40;;;;;;5138035;27;20451;-56
2022/10/03 13:38:05;;;;;;;6.15;0.60;;;18.70;98.30;;;;;;5135638;27;20035;-56
2022/10/03 13:40:36;;;;;;;3.38;0.50;;;18.70;98.50;;;;;;5136636;27;20145;-57
2022/10/03 13:43:10;;;;;;;4.88;0.75;;;18.70;98.40;;;;;;5139216;27;20106;-57
2022/10/03 13:45:43;;;;;;;5.47;0.85;;;18.70;98.60;;;;;;5137350;27;20809;-56
2022/10/03 13:48:18;;;;;;;4.28;0.30;;;18.70;98.30;;;;;;5134062;27;20114;-56
2022/10/03 13:50:52;;;;;;;27.35;1.10;;;18.80;98.70;;;;;;5136162;27;20122;-57
2022/10/03 13:53:48;;;;;;;5.75;1.08;;;18.80;98.30;;;;;;5138657;27;20027;-56
2022/10/03 13:56:48;;;;;;;9.68;0.75;;;18.90;98.20;;;;;;5135404;27;20456;-57
2022/10/03 13:59:46;;;;;;;3.70;0.55;;;18.80;97.90;;;;;;5136875;27;20080;-57
2022/10/03 14:02:50;;;;;;;3.00;0.45;;;18.90;98.10;;;;;;5135181;27;20038;-56
2022/10/03 14:05:47;;;;;;;3.92;0.15;;;18.90;97.90;;;;;;5136267;27;20432;-57
2022/10/03 14:08:37;;;;;;;3.38;0.50;;;18.90;98.30;;;;;;5134356;27;20029;-56
2022/10/03 14:11:53;;;;;;;2.10;0.43;;;19.00;98.00;;;;;;5119013;27;20467;-57
2022/10/03 14:14:27;;;;;;;4.38;0.50;;;19.00;98.00;;;;;;5049836;28;20130;-55
2022/10/03 14:17:11;;;;;;;2.70;0.40;;;19.00;97.90;;;;;;5051745;28;20040;-55
2022/10/03 14:19:57;;;;;;;3.97;0.20;;;19.00;98.00;;;;;;5050637;28;20057;-56
2022/10/03 14:22:42;;;;;;;3.90;0.30;;;19.00;97.70;;;;;;5035339;28;20436;-56
2022/10/03 14:25:21;;;;;;;3.80;0.80;;;18.90;98.00;;;;;;5046375;28;20076;-52
2022/10/03 14:27:47;;;;;;;4.35;0.52;;;18.90;97.90;;;;;;5052772;28;20040;-52
2022/10/03 14:30:31;;;;;;;4.28;0.40;;;19.00;97.90;;;;;;5052457;28;20033;-56
2022/10/03 14:33:23;;;;;;;7.38;0.50;;;18.90;97.80;;;;;;5052150;28;20063;-57
2022/10/03 14:36:05;;;;;;;4.55;0.77;;;18.90;97.90;;;;;;5029498;28;20528;-57
2022/10/03 14:39:01;;;;;;;4.22;0.30;;;18.90;98.00;;;;;;5052004;28;20055;-56
2022/10/03 14:41:40;;;;;;;6.45;0.50;;;18.90;97.80;;;;;;5048686;28;20083;-57
2022/10/03 14:44:20;;;;;;;3.70;0.28;;;18.90;97.60;;;;;;5055180;27;20044;-56
2022/10/03 14:47:06;;;;;;;4.78;0.35;;;18.80;97.70;;;;;;5109467;27;20039;-56
2022/10/03 14:49:35;;;;;;;2.42;0.40;;;18.70;98.00;;;;;;5135507;27;20057;-56
2022/10/03 14:52:30;;;;;;;3.92;0.20;;;18.70;98.20;;;;;;5134272;27;20114;-57